sensor_id;sensor_type;location;lat;lon;timestamp;pressure;altitude;pressure_sealevel;temperature;humidity
67373;BME280;54257;54.496;18.412;2023-04-16T00:00:47;99945.55;;;7.20;95.23
67373;BME280;54257;54.496;18.412;2023-04-16T00:03:33;99943.48;;;7.19;95.40
67373;BME280;54257;54.496;18.412;2023-04-16T00:06:04;99938.81;;;7.17;95.52
67373;BME280;54257;54.496;18.412;2023-04-16T00:08:33;99937.43;;;7.16;95.48
67373;BME280;54257;54.496;18.412;2023-04-16T00:11:01;99936.75;;;7.16;95.62
67373;BME280;54257;54.496;18.412;2023-04-16T00:13:28;99940.60;;;7.15;96.11
67373;BME280;54257;54.496;18.412;2023-04-16T00:15:55;99942.95;;;7.13;95.98
67373;BME280;54257;54.496;18.412;2023-04-16T00:18:24;99946.50;;;7.13;96.03
67373;BME280;54257;54.496;18.412;2023-04-16T00:20:52;99949.65;;;7.10;96.37
67373;BME280;54257;54.496;18.412;2023-04-16T00:23:20;99948.92;;;7.08;96.28
67373;BME280;54257;54.496;18.412;2023-04-16T00:25:47;99952.88;;;7.10;96.45
67373;BME280;54257;54.496;18.412;2023-04-16T00:28:15;99953.02;;;7.09;96.83
67373;BME280;54257;54.496;18.412;2023-04-16T00:30:43;99953.23;;;7.10;96.70
67373;BME280;54257;54.496;18.412;2023-04-16T00:33:10;99954.35;;;7.08;96.88
67373;BME280;54257;54.496;18.412;2023-04-16T00:35:40;99954.38;;;7.09;96.92
67373;BME280;54257;54.496;18.412;2023-04-16T00:38:14;99954.73;;;7.09;96.87
67373;BME280;54257;54.496;18.412;2023-04-16T00:40:42;99949.23;;;7.08;97.19
67373;BME280;54257;54.496;18.412;2023-04-16T00:43:20;99949.28;;;7.04;97.19
67373;BME280;54257;54.496;18.412;2023-04-16T00:45:47;99950.57;;;7.01;97.63
67373;BME280;54257;54.496;18.412;2023-04-16T00:48:16;99948.47;;;6.99;97.56
67373;BME280;54257;54.496;18.412;2023-04-16T00:50:43;99948.16;;;7.00;97.63
67373;BME280;54257;54.496;18.412;2023-04-16T00:53:13;99947.80;;;6.99;97.77
67373;BME280;54257;54.496;18.412;2023-04-16T00:55:41;99951.72;;;7.00;97.84
67373;BME280;54257;54.496;18.412;2023-04-16T00:58:09;99951.02;;;6.99;98.03
67373;BME280;54257;54.496;18.412;2023-04-16T01:00:40;99951.80;;;6.97;98.30
67373;BME280;54257;54.496;18.412;2023-04-16T01:03:08;99951.23;;;6.95;98.61
67373;BME280;54257;54.496;18.412;2023-04-16T01:05:39;99958.29;;;6.93;98.53
67373;BME280;54257;54.496;18.412;2023-04-16T01:08:18;99952.58;;;6.89;98.93
67373;BME280;54257;54.496;18.412;2023-04-16T01:10:45;99957.76;;;6.86;98.86
67373;BME280;54257;54.496;18.412;2023-04-16T01:13:17;99956.31;;;6.84;98.91
67373;BME280;54257;54.496;18.412;2023-04-16T01:15:44;99958.29;;;6.82;99.28
67373;BME280;54257;54.496;18.412;2023-04-16T01:18:19;99960.77;;;6.80;99.45
67373;BME280;54257;54.496;18.412;2023-04-16T01:20:47;99960.63;;;6.81;99.33
67373;BME280;54257;54.496;18.412;2023-04-16T01:23:15;99960.64;;;6.81;99.16
67373;BME280;54257;54.496;18.412;2023-04-16T01:25:45;99958.95;;;6.82;99.43
67373;BME280;54257;54.496;18.412;2023-04-16T01:28:23;99959.47;;;6.82;99.17
67373;BME280;54257;54.496;18.412;2023-04-16T01:30:50;99960.81;;;6.81;99.12
67373;BME280;54257;54.496;18.412;2023-04-16T01:33:18;99960.77;;;6.80;99.27
67373;BME280;54257;54.496;18.412;2023-04-16T01:35:45;99963.79;;;6.79;99.21
67373;BME280;54257;54.496;18.412;2023-04-16T01:38:19;99963.25;;;6.77;99.12
67373;BME280;54257;54.496;18.412;2023-04-16T01:40:46;99961.22;;;6.78;99.35
67373;BME280;54257;54.496;18.412;2023-04-16T01:43:14;99958.16;;;6.78;99.26
67373;BME280;54257;54.496;18.412;2023-04-16T01:45:44;99956.47;;;6.78;99.16
67373;BME280;54257;54.496;18.412;2023-04-16T01:48:12;99958.20;;;6.79;99.19
67373;BME280;54257;54.496;18.412;2023-04-16T01:50:40;99955.80;;;6.78;99.19
67373;BME280;54257;54.496;18.412;2023-04-16T01:53:15;99952.16;;;6.76;99.17
67373;BME280;54257;54.496;18.412;2023-04-16T01:55:44;99955.81;;;6.79;99.00
67373;BME280;54257;54.496;18.412;2023-04-16T01:58:14;99956.48;;;6.78;99.37
67373;BME280;54257;54.496;18.412;2023-04-16T02:00:43;99954.57;;;6.77;99.26
67373;BME280;54257;54.496;18.412;2023-04-16T02:03:18;99956.73;;;6.75;99.48
67373;BME280;54257;54.496;18.412;2023-04-16T02:05:51;99955.31;;;6.73;99.66
67373;BME280;54257;54.496;18.412;2023-04-16T02:08:22;99952.02;;;6.71;99.85
67373;BME280;54257;54.496;18.412;2023-04-16T02:10:56;99956.41;;;6.70;99.90
67373;BME280;54257;54.496;18.412;2023-04-16T02:13:25;99950.96;;;6.70;100.00
67373;BME280;54257;54.496;18.412;2023-04-16T02:15:57;99952.98;;;6.69;100.00
67373;BME280;54257;54.496;18.412;2023-04-16T02:18:27;99953.50;;;6.70;100.00
67373;BME280;54257;54.496;18.412;2023-04-16T02:20:59;99952.93;;;6.68;100.00
67373;BME280;54257;54.496;18.412;2023-04-16T02:23:26;99955.45;;;6.67;100.00
67373;BME280;54257;54.496;18.412;2023-04-16T02:25:53;99952.78;;;6.68;100.00
67373;BME280;54257;54.496;18.412;2023-04-16T02:28:21;99951.91;;;6.68;100.00
67373;BME280;54257;54.496;18.412;2023-04-16T02:30:48;99954.23;;;6.66;100.00
67373;BME280;54257;54.496;18.412;2023-04-16T02:33:18;99955.66;;;6.63;100.00
67373;BME280;54257;54.496;18.412;2023-04-16T02:35:45;99955.45;;;6.62;100.00
67373;BME280;54257;54.496;18.412;2023-04-16T02:38:14;99959.34;;;6.62;100.00
67373;BME280;54257;54.496;18.412;2023-04-16T02:40:41;99955.59;;;6.60;100.00
67373;BME280;54257;54.496;18.412;2023-04-16T02:43:08;99959.13;;;6.60;100.00
67373;BME280;54257;54.496;18.412;2023-04-16T02:45:35;99958.79;;;6.60;100.00
67373;BME280;54257;54.496;18.412;2023-04-16T02:48:02;99958.08;;;6.59;100.00
67373;BME280;54257;54.496;18.412;2023-04-16T02:50:29;99959.69;;;6.57;100.00
67373;BME280;54257;54.496;18.412;2023-04-16T02:52:57;99958.34;;;6.57;100.00
67373;BME280;54257;54.496;18.412;2023-04-16T02:55:23;99958.33;;;6.57;100.00
67373;BME280;54257;54.496;18.412;2023-04-16T02:57:51;99958.98;;;6.56;100.00
67373;BME280;54257;54.496;18.412;2023-04-16T03:00:19;99960.29;;;6.54;100.00
67373;BME280;54257;54.496;18.412;2023-04-16T03:02:46;99964.00;;;6.54;100.00
67373;BME280;54257;54.496;18.412;2023-04-16T03:05:13;99967.38;;;6.53;100.00
67373;BME280;54257;54.496;18.412;2023-04-16T03:07:40;99965.16;;;6.52;100.00
67373;BME280;54257;54.496;18.412;2023-04-16T03:10:07;99966.31;;;6.52;100.00
67373;BME280;54257;54.496;18.412;2023-04-16T03:12:35;99966.74;;;6.50;100.00
67373;BME280;54257;54.496;18.412;2023-04-16T03:15:02;99968.45;;;6.50;100.00
67373;BME280;54257;54.496;18.412;2023-04-16T03:17:29;99971.48;;;6.49;100.00
67373;BME280;54257;54.496;18.412;2023-04-16T03:19:56;99970.08;;;6.47;100.00
67373;BME280;54257;54.496;18.412;2023-04-16T03:22:23;99969.19;;;6.46;100.00
67373;BME280;54257;54.496;18.412;2023-04-16T03:24:50;99968.01;;;6.46;100.00
67373;BME280;54257;54.496;18.412;2023-04-16T03:27:17;99966.44;;;6.45;100.00
67373;BME280;54257;54.496;18.412;2023-04-16T03:29:44;99969.61;;;6.43;100.00
67373;BME280;54257;54.496;18.412;2023-04-16T03:32:11;99970.61;;;6.43;100.00
67373;BME280;54257;54.496;18.412;2023-04-16T03:34:38;99969.48;;;6.44;100.00
67373;BME280;54257;54.496;18.412;2023-04-16T03:37:05;99972.52;;;6.44;100.00
67373;BME280;54257;54.496;18.412;2023-04-16T03:39:32;99974.91;;;6.44;100.00
67373;BME280;54257;54.496;18.412;2023-04-16T03:42:00;99973.71;;;6.44;100.00
67373;BME280;54257;54.496;18.412;2023-04-16T03:44:28;99976.07;;;6.44;100.00
67373;BME280;54257;54.496;18.412;2023-04-16T03:46:55;99976.35;;;6.42;100.00
67373;BME280;54257;54.496;18.412;2023-04-16T03:49:22;99978.84;;;6.40;100.00
67373;BME280;54257;54.496;18.412;2023-04-16T03:51:50;99983.72;;;6.40;100.00
67373;BME280;54257;54.496;18.412;2023-04-16T03:54:17;99982.34;;;6.39;100.00
67373;BME280;54257;54.496;18.412;2023-04-16T03:56:45;99985.59;;;6.40;100.00
67373;BME280;54257;54.496;18.412;2023-04-16T03:59:12;99982.52;;;6.39;100.00
67373;BME280;54257;54.496;18.412;2023-04-16T04:01:39;99985.55;;;6.38;100.00
67373;BME280;54257;54.496;18.412;2023-04-16T04:04:07;99984.58;;;6.35;100.00
67373;BME280;54257;54.496;18.412;2023-04-16T04:06:35;99986.08;;;6.34;100.00
67373;BME280;54257;54.496;18.412;2023-04-16T04:09:02;99989.27;;;6.33;100.00
67373;BME280;54257;54.496;18.412;2023-04-16T04:11:29;99993.69;;;6.33;100.00
67373;BME280;54257;54.496;18.412;2023-04-16T04:13:57;99993.36;;;6.34;100.00
67373;BME280;54257;54.496;18.412;2023-04-16T04:16:24;99995.60;;;6.35;100.00
67373;BME280;54257;54.496;18.412;2023-04-16T04:18:51;100001.72;;;6.35;100.00
67373;BME280;54257;54.496;18.412;2023-04-16T04:21:18;100004.23;;;6.34;100.00
67373;BME280;54257;54.496;18.412;2023-04-16T04:23:45;100004.20;;;6.33;100.00
67373;BME280;54257;54.496;18.412;2023-04-16T04:26:12;100006.53;;;6.32;100.00
67373;BME280;54257;54.496;18.412;2023-04-16T04:28:39;100010.95;;;6.32;100.00
67373;BME280;54257;54.496;18.412;2023-04-16T04:31:09;100009.56;;;6.31;100.00
67373;BME280;54257;54.496;18.412;2023-04-16T04:33:37;100016.80;;;6.29;100.00
67373;BME280;54257;54.496;18.412;2023-04-16T04:36:04;100017.55;;;6.27;100.00
67373;BME280;54257;54.496;18.412;2023-04-16T04:38:31;100017.45;;;6.24;100.00
67373;BME280;54257;54.496;18.412;2023-04-16T04:40:58;100017.53;;;6.21;100.00
67373;BME280;54257;54.496;18.412;2023-04-16T04:43:27;100018.89;;;6.16;100.00
67373;BME280;54257;54.496;18.412;2023-04-16T04:45:54;100017.50;;;6.15;100.00
67373;BME280;54257;54.496;18.412;2023-04-16T04:48:21;100017.30;;;6.14;100.00
67373;BME280;54257;54.496;18.412;2023-04-16T04:50:52;100018.98;;;6.14;100.00
67373;BME280;54257;54.496;18.412;2023-04-16T04:53:19;100024.89;;;6.13;100.00
67373;BME280;54257;54.496;18.412;2023-04-16T04:55:46;100025.31;;;6.11;100.00
67373;BME280;54257;54.496;18.412;2023-04-16T04:58:14;100027.05;;;6.08;100.00
67373;BME280;54257;54.496;18.412;2023-04-16T05:00:41;100024.81;;;6.07;100.00
67373;BME280;54257;54.496;18.412;2023-04-16T05:03:09;100030.10;;;6.07;100.00
67373;BME280;54257;54.496;18.412;2023-04-16T05:05:38;100025.97;;;6.06;100.00
67373;BME280;54257;54.496;18.412;2023-04-16T05:08:06;100032.35;;;6.09;100.00
67373;BME280;54257;54.496;18.412;2023-04-16T05:10:33;100033.30;;;6.07;100.00
67373;BME280;54257;54.496;18.412;2023-04-16T05:13:00;100028.02;;;6.06;100.00
67373;BME280;54257;54.496;18.412;2023-04-16T05:15:28;100031.59;;;6.06;100.00
67373;BME280;54257;54.496;18.412;2023-04-16T05:17:55;100035.20;;;6.07;100.00
67373;BME280;54257;54.496;18.412;2023-04-16T05:20:22;100037.91;;;6.08;100.00
67373;BME280;54257;54.496;18.412;2023-04-16T05:22:50;100038.63;;;6.14;100.00
67373;BME280;54257;54.496;18.412;2023-04-16T05:25:17;100040.39;;;6.15;100.00
67373;BME280;54257;54.496;18.412;2023-04-16T05:27:44;100042.61;;;6.16;100.00
67373;BME280;54257;54.496;18.412;2023-04-16T05:30:11;100048.07;;;6.17;100.00
67373;BME280;54257;54.496;18.412;2023-04-16T05:32:39;100047.09;;;6.18;100.00
67373;BME280;54257;54.496;18.412;2023-04-16T05:35:07;100053.36;;;6.18;100.00
67373;BME280;54257;54.496;18.412;2023-04-16T05:37:35;100049.08;;;6.16;100.00
67373;BME280;54257;54.496;18.412;2023-04-16T05:40:03;100055.64;;;6.15;100.00
67373;BME280;54257;54.496;18.412;2023-04-16T05:42:30;100058.19;;;6.15;100.00
67373;BME280;54257;54.496;18.412;2023-04-16T05:44:57;100059.73;;;6.15;100.00
67373;BME280;54257;54.496;18.412;2023-04-16T05:47:25;100060.67;;;6.13;100.00
67373;BME280;54257;54.496;18.412;2023-04-16T05:49:52;100060.84;;;6.13;100.00
67373;BME280;54257;54.496;18.412;2023-04-16T05:52:19;100062.05;;;6.14;100.00
67373;BME280;54257;54.496;18.412;2023-04-16T05:54:46;100061.23;;;6.15;100.00
67373;BME280;54257;54.496;18.412;2023-04-16T05:57:13;100058.95;;;6.13;100.00
67373;BME280;54257;54.496;18.412;2023-04-16T05:59:40;100061.77;;;6.16;100.00
67373;BME280;54257;54.496;18.412;2023-04-16T06:02:12;100064.81;;;6.16;100.00
67373;BME280;54257;54.496;18.412;2023-04-16T06:04:39;100066.19;;;6.16;100.00
67373;BME280;54257;54.496;18.412;2023-04-16T06:07:07;100068.89;;;6.16;100.00
67373;BME280;54257;54.496;18.412;2023-04-16T06:09:34;100073.67;;;6.17;100.00
67373;BME280;54257;54.496;18.412;2023-04-16T06:12:02;100074.86;;;6.17;100.00
67373;BME280;54257;54.496;18.412;2023-04-16T06:14:29;100076.42;;;6.18;100.00
67373;BME280;54257;54.496;18.412;2023-04-16T06:16:56;100075.80;;;6.20;100.00
67373;BME280;54257;54.496;18.412;2023-04-16T06:19:24;100076.73;;;6.22;100.00
67373;BME280;54257;54.496;18.412;2023-04-16T06:21:51;100080.06;;;6.25;100.00
67373;BME280;54257;54.496;18.412;2023-04-16T06:24:19;100086.25;;;6.27;100.00
67373;BME280;54257;54.496;18.412;2023-04-16T06:26:46;100088.58;;;6.26;100.00
67373;BME280;54257;54.496;18.412;2023-04-16T06:29:13;100086.54;;;6.26;100.00
67373;BME280;54257;54.496;18.412;2023-04-16T06:31:41;100089.90;;;6.25;100.00
67373;BME280;54257;54.496;18.412;2023-04-16T06:34:08;100088.64;;;6.27;100.00
67373;BME280;54257;54.496;18.412;2023-04-16T06:36:37;100090.52;;;6.28;100.00
67373;BME280;54257;54.496;18.412;2023-04-16T06:39:04;100091.76;;;6.29;100.00
67373;BME280;54257;54.496;18.412;2023-04-16T06:41:31;100097.27;;;6.31;100.00
67373;BME280;54257;54.496;18.412;2023-04-16T06:43:58;100098.67;;;6.33;100.00
67373;BME280;54257;54.496;18.412;2023-04-16T06:46:33;100098.69;;;6.33;100.00
67373;BME280;54257;54.496;18.412;2023-04-16T06:49:00;100100.23;;;6.34;100.00
67373;BME280;54257;54.496;18.412;2023-04-16T06:51:27;100102.68;;;6.35;100.00
67373;BME280;54257;54.496;18.412;2023-04-16T06:53:54;100103.38;;;6.36;100.00
67373;BME280;54257;54.496;18.412;2023-04-16T06:56:21;100101.20;;;6.28;100.00
67373;BME280;54257;54.496;18.412;2023-04-16T06:58:49;100101.08;;;6.25;100.00
67373;BME280;54257;54.496;18.412;2023-04-16T07:01:19;100104.01;;;6.26;100.00
67373;BME280;54257;54.496;18.412;2023-04-16T07:03:47;100108.61;;;6.26;100.00
67373;BME280;54257;54.496;18.412;2023-04-16T07:06:14;100106.70;;;6.26;100.00
67373;BME280;54257;54.496;18.412;2023-04-16T07:08:41;100104.66;;;6.25;100.00
67373;BME280;54257;54.496;18.412;2023-04-16T07:11:11;100110.86;;;6.28;100.00
67373;BME280;54257;54.496;18.412;2023-04-16T07:13:38;100110.44;;;6.29;100.00
67373;BME280;54257;54.496;18.412;2023-04-16T07:16:05;100108.95;;;6.31;100.00
67373;BME280;54257;54.496;18.412;2023-04-16T07:18:33;100108.62;;;6.32;100.00
67373;BME280;54257;54.496;18.412;2023-04-16T07:21:00;100113.60;;;6.33;100.00
67373;BME280;54257;54.496;18.412;2023-04-16T07:23:27;100112.28;;;6.34;100.00
67373;BME280;54257;54.496;18.412;2023-04-16T07:25:54;100116.05;;;6.40;100.00
67373;BME280;54257;54.496;18.412;2023-04-16T07:28:22;100119.77;;;6.44;100.00
67373;BME280;54257;54.496;18.412;2023-04-16T07:30:51;100121.34;;;6.44;100.00
67373;BME280;54257;54.496;18.412;2023-04-16T07:33:18;100119.44;;;6.44;100.00
67373;BME280;54257;54.496;18.412;2023-04-16T07:35:47;100125.58;;;6.45;100.00
67373;BME280;54257;54.496;18.412;2023-04-16T07:38:17;100126.25;;;6.50;100.00
67373;BME280;54257;54.496;18.412;2023-04-16T07:40:44;100123.36;;;6.54;100.00
67373;BME280;54257;54.496;18.412;2023-04-16T07:43:12;100125.37;;;6.63;100.00
67373;BME280;54257;54.496;18.412;2023-04-16T07:45:41;100129.08;;;6.72;100.00
67373;BME280;54257;54.496;18.412;2023-04-16T07:48:08;100132.19;;;6.79;100.00
67373;BME280;54257;54.496;18.412;2023-04-16T07:50:35;100133.66;;;6.83;100.00
67373;BME280;54257;54.496;18.412;2023-04-16T07:53:02;100136.13;;;6.90;100.00
67373;BME280;54257;54.496;18.412;2023-04-16T07:55:31;100136.05;;;6.97;100.00
67373;BME280;54257;54.496;18.412;2023-04-16T07:57:58;100135.05;;;7.03;100.00
67373;BME280;54257;54.496;18.412;2023-04-16T08:00:26;100139.84;;;7.04;100.00
67373;BME280;54257;54.496;18.412;2023-04-16T08:02:54;100134.48;;;7.07;100.00
67373;BME280;54257;54.496;18.412;2023-04-16T08:05:21;100134.52;;;7.12;100.00
67373;BME280;54257;54.496;18.412;2023-04-16T08:07:50;100139.41;;;7.17;100.00
67373;BME280;54257;54.496;18.412;2023-04-16T08:10:17;100141.73;;;7.20;99.90
67373;BME280;54257;54.496;18.412;2023-04-16T08:12:45;100144.25;;;7.19;100.00
67373;BME280;54257;54.496;18.412;2023-04-16T08:15:12;100146.11;;;7.24;100.00
67373;BME280;54257;54.496;18.412;2023-04-16T08:17:39;100147.27;;;7.28;99.94
67373;BME280;54257;54.496;18.412;2023-04-16T08:20:07;100144.70;;;7.33;100.00
67373;BME280;54257;54.496;18.412;2023-04-16T08:22:35;100151.88;;;7.40;99.51
67373;BME280;54257;54.496;18.412;2023-04-16T08:25:03;100152.10;;;7.41;98.72
67373;BME280;54257;54.496;18.412;2023-04-16T08:27:30;100155.42;;;7.44;98.57
67373;BME280;54257;54.496;18.412;2023-04-16T08:29:57;100151.42;;;7.47;97.97
67373;BME280;54257;54.496;18.412;2023-04-16T08:32:25;100153.54;;;7.60;98.85
67373;BME280;54257;54.496;18.412;2023-04-16T08:34:53;100154.17;;;7.80;99.51
67373;BME280;54257;54.496;18.412;2023-04-16T08:37:21;100155.22;;;8.03;99.39
67373;BME280;54257;54.496;18.412;2023-04-16T08:39:48;100155.12;;;8.23;99.46
67373;BME280;54257;54.496;18.412;2023-04-16T08:42:30;100160.53;;;8.34;96.01
67373;BME280;54257;54.496;18.412;2023-04-16T08:45:13;100160.35;;;8.50;95.53
67373;BME280;54257;54.496;18.412;2023-04-16T08:47:46;100161.57;;;8.63;94.46
67373;BME280;54257;54.496;18.412;2023-04-16T08:50:18;100159.79;;;8.73;93.43
67373;BME280;54257;54.496;18.412;2023-04-16T08:52:52;100163.95;;;8.88;94.43
67373;BME280;54257;54.496;18.412;2023-04-16T08:55:29;100164.63;;;8.94;92.14
67373;BME280;54257;54.496;18.412;2023-04-16T08:57:59;100165.32;;;8.95;90.74
67373;BME280;54257;54.496;18.412;2023-04-16T09:00:28;100164.13;;;9.08;90.88
67373;BME280;54257;54.496;18.412;2023-04-16T09:02:57;100162.88;;;9.26;92.10
67373;BME280;54257;54.496;18.412;2023-04-16T09:05:26;100165.04;;;9.52;91.03
67373;BME280;54257;54.496;18.412;2023-04-16T09:07:55;100158.91;;;9.59;85.95
67373;BME280;54257;54.496;18.412;2023-04-16T09:10:25;100161.94;;;9.79;88.08
67373;BME280;54257;54.496;18.412;2023-04-16T09:12:55;100163.18;;;10.12;89.08
67373;BME280;54257;54.496;18.412;2023-04-16T09:15:24;100169.50;;;10.35;87.06
67373;BME280;54257;54.496;18.412;2023-04-16T09:17:51;100167.05;;;10.41;84.09
67373;BME280;54257;54.496;18.412;2023-04-16T09:20:19;100165.37;;;10.50;83.59
67373;BME280;54257;54.496;18.412;2023-04-16T09:22:47;100172.59;;;10.70;82.40
67373;BME280;54257;54.496;18.412;2023-04-16T09:25:15;100174.67;;;10.72;81.46
67373;BME280;54257;54.496;18.412;2023-04-16T09:27:48;100174.67;;;10.72;81.61
67373;BME280;54257;54.496;18.412;2023-04-16T09:30:22;100180.98;;;10.80;80.99
67373;BME280;54257;54.496;18.412;2023-04-16T09:32:51;100182.83;;;10.78;79.37
67373;BME280;54257;54.496;18.412;2023-04-16T09:35:19;100182.75;;;10.91;80.28
67373;BME280;54257;54.496;18.412;2023-04-16T09:37:56;100181.23;;;11.21;80.29
67373;BME280;54257;54.496;18.412;2023-04-16T09:40:27;100180.35;;;11.50;78.55
67373;BME280;54257;54.496;18.412;2023-04-16T09:42:58;100181.86;;;11.69;76.33
67373;BME280;54257;54.496;18.412;2023-04-16T09:45:30;100182.93;;;11.72;75.12
67373;BME280;54257;54.496;18.412;2023-04-16T09:48:02;100178.15;;;11.73;73.33
67373;BME280;54257;54.496;18.412;2023-04-16T09:50:31;100177.32;;;11.74;73.09
67373;BME280;54257;54.496;18.412;2023-04-16T09:53:00;100180.27;;;11.77;71.62
67373;BME280;54257;54.496;18.412;2023-04-16T09:55:29;100180.83;;;11.79;72.10
67373;BME280;54257;54.496;18.412;2023-04-16T09:57:58;100183.46;;;11.94;72.82
67373;BME280;54257;54.496;18.412;2023-04-16T10:00:29;100186.58;;;12.08;70.40
67373;BME280;54257;54.496;18.412;2023-04-16T10:03:05;100187.80;;;12.36;72.19
67373;BME280;54257;54.496;18.412;2023-04-16T10:05:32;100193.33;;;12.67;71.81
67373;BME280;54257;54.496;18.412;2023-04-16T10:07:59;100191.90;;;13.09;72.75
67373;BME280;54257;54.496;18.412;2023-04-16T10:10:29;100192.02;;;13.58;70.34
67373;BME280;54257;54.496;18.412;2023-04-16T10:12:56;100189.66;;;13.84;68.02
67373;BME280;54257;54.496;18.412;2023-04-16T10:15:24;100188.07;;;14.02;65.14
67373;BME280;54257;54.496;18.412;2023-04-16T10:17:52;100188.48;;;14.17;64.81
67373;BME280;54257;54.496;18.412;2023-04-16T10:20:21;100190.11;;;14.28;63.60
67373;BME280;54257;54.496;18.412;2023-04-16T10:22:49;100186.34;;;14.32;63.08
67373;BME280;54257;54.496;18.412;2023-04-16T10:25:20;100188.42;;;14.38;61.52
67373;BME280;54257;54.496;18.412;2023-04-16T10:27:48;100188.27;;;14.41;62.18
67373;BME280;54257;54.496;18.412;2023-04-16T10:30:17;100191.34;;;14.35;60.63
67373;BME280;54257;54.496;18.412;2023-04-16T10:32:45;100191.66;;;14.30;62.03
67373;BME280;54257;54.496;18.412;2023-04-16T10:35:18;100196.14;;;14.34;62.25
67373;BME280;54257;54.496;18.412;2023-04-16T10:37:46;100199.25;;;14.38;62.06
67373;BME280;54257;54.496;18.412;2023-04-16T10:40:25;100199.79;;;14.40;61.51
67373;BME280;54257;54.496;18.412;2023-04-16T10:42:56;100208.84;;;14.60;61.58
67373;BME280;54257;54.496;18.412;2023-04-16T10:45:31;100208.52;;;14.66;59.74
67373;BME280;54257;54.496;18.412;2023-04-16T10:48:04;100216.48;;;14.44;58.50
67373;BME280;54257;54.496;18.412;2023-04-16T10:50:36;100219.36;;;14.41;59.29
67373;BME280;54257;54.496;18.412;2023-04-16T10:58:33;100219.98;;;14.25;60.65
67373;BME280;54257;54.496;18.412;2023-04-16T11:01:06;100223.38;;;14.19;58.58
67373;BME280;54257;54.496;18.412;2023-04-16T11:03:47;100226.31;;;13.95;58.70
67373;BME280;54257;54.496;18.412;2023-04-16T11:06:16;100233.51;;;13.70;59.25
67373;BME280;54257;54.496;18.412;2023-04-16T11:08:45;100234.83;;;13.63;59.95
67373;BME280;54257;54.496;18.412;2023-04-16T11:11:13;100239.28;;;13.62;59.62
67373;BME280;54257;54.496;18.412;2023-04-16T11:13:44;100241.01;;;13.64;59.49
67373;BME280;54257;54.496;18.412;2023-04-16T11:16:13;100242.02;;;13.62;59.10
67373;BME280;54257;54.496;18.412;2023-04-16T11:18:41;100245.24;;;13.58;59.98
67373;BME280;54257;54.496;18.412;2023-04-16T11:21:10;100243.73;;;13.61;60.27
67373;BME280;54257;54.496;18.412;2023-04-16T11:23:48;100245.46;;;13.63;60.24
67373;BME280;54257;54.496;18.412;2023-04-16T11:26:22;100248.43;;;13.68;60.12
67373;BME280;54257;54.496;18.412;2023-04-16T11:28:49;100250.92;;;13.78;59.73
67373;BME280;54257;54.496;18.412;2023-04-16T11:31:16;100250.71;;;13.74;59.57
67373;BME280;54257;54.496;18.412;2023-04-16T11:33:43;100255.23;;;13.81;59.94
67373;BME280;54257;54.496;18.412;2023-04-16T11:36:10;100257.86;;;13.88;59.48
67373;BME280;54257;54.496;18.412;2023-04-16T11:38:38;100259.55;;;13.84;59.24
67373;BME280;54257;54.496;18.412;2023-04-16T11:41:08;100254.95;;;13.88;59.33
67373;BME280;54257;54.496;18.412;2023-04-16T11:43:37;100256.31;;;13.87;58.59
67373;BME280;54257;54.496;18.412;2023-04-16T11:46:05;100253.84;;;14.00;58.71
67373;BME280;54257;54.496;18.412;2023-04-16T11:48:46;100249.94;;;14.07;58.77
67373;BME280;54257;54.496;18.412;2023-04-16T11:51:19;100252.20;;;14.13;59.42
67373;BME280;54257;54.496;18.412;2023-04-16T11:53:51;100256.63;;;14.32;59.11
67373;BME280;54257;54.496;18.412;2023-04-16T11:56:32;100259.68;;;14.26;58.06
67373;BME280;54257;54.496;18.412;2023-04-16T11:59:09;100259.67;;;14.25;58.28
67373;BME280;54257;54.496;18.412;2023-04-16T12:01:38;100257.91;;;14.18;57.92
67373;BME280;54257;54.496;18.412;2023-04-16T12:04:06;100262.61;;;14.03;57.89
67373;BME280;54257;54.496;18.412;2023-04-16T12:06:36;100261.53;;;13.96;58.56
67373;BME280;54257;54.496;18.412;2023-04-16T12:09:24;100267.29;;;13.86;58.75
67373;BME280;54257;54.496;18.412;2023-04-16T12:11:54;100266.83;;;13.72;58.97
67373;BME280;54257;54.496;18.412;2023-04-16T12:14:24;100266.42;;;13.66;59.01
67373;BME280;54257;54.496;18.412;2023-04-16T12:17:15;100262.33;;;13.67;59.49
67373;BME280;54257;54.496;18.412;2023-04-16T12:19:51;100264.54;;;13.66;59.29
67373;BME280;54257;54.496;18.412;2023-04-16T12:22:33;100265.27;;;13.69;60.15
67373;BME280;54257;54.496;18.412;2023-04-16T12:25:10;100269.70;;;13.65;59.77
67373;BME280;54257;54.496;18.412;2023-04-16T12:27:52;100275.89;;;13.49;59.63
67373;BME280;54257;54.496;18.412;2023-04-16T12:30:21;100279.77;;;13.27;60.07
67373;BME280;54257;54.496;18.412;2023-04-16T12:33:13;100280.80;;;13.14;60.11
67373;BME280;54257;54.496;18.412;2023-04-16T12:35:39;100281.46;;;13.12;60.52
67373;BME280;54257;54.496;18.412;2023-04-16T12:38:07;100280.50;;;13.17;61.17
67373;BME280;54257;54.496;18.412;2023-04-16T12:40:35;100282.04;;;13.29;61.56
67373;BME280;54257;54.496;18.412;2023-04-16T12:43:03;100282.20;;;13.45;61.54
67373;BME280;54257;54.496;18.412;2023-04-16T12:45:30;100285.82;;;13.46;60.82
67373;BME280;54257;54.496;18.412;2023-04-16T12:47:58;100285.41;;;13.40;60.69
67373;BME280;54257;54.496;18.412;2023-04-16T12:50:28;100290.11;;;13.31;60.08
67373;BME280;54257;54.496;18.412;2023-04-16T12:52:55;100288.64;;;13.23;60.58
67373;BME280;54257;54.496;18.412;2023-04-16T12:55:26;100290.60;;;13.16;60.93
67373;BME280;54257;54.496;18.412;2023-04-16T12:57:53;100288.33;;;13.12;60.78
67373;BME280;54257;54.496;18.412;2023-04-16T13:00:23;100288.23;;;13.04;61.08